sensor_id;sensor_type;location;lat;lon;timestamp;temperature;humidity
31443;SHT31;18065;55.876;9.830;2022-11-15T00:01:47;22.72;58.09
31443;SHT31;18065;55.876;9.830;2022-11-15T00:04:19;22.72;58.11
31443;SHT31;18065;55.876;9.830;2022-11-15T00:06:47;22.71;58.19
31443;SHT31;18065;55.876;9.830;2022-11-15T00:09:16;22.68;58.12
31443;SHT31;18065;55.876;9.830;2022-11-15T00:11:45;22.69;58.14
31443;SHT31;18065;55.876;9.830;2022-11-15T00:14:13;22.71;58.14
31443;SHT31;18065;55.876;9.830;2022-11-15T00:16:42;22.71;58.11
31443;SHT31;18065;55.876;9.830;2022-11-15T00:19:12;22.69;58.12
31443;SHT31;18065;55.876;9.830;2022-11-15T00:21:43;22.65;58.26
31443;SHT31;18065;55.876;9.830;2022-11-15T00:24:12;22.65;58.19
31443;SHT31;18065;55.876;9.830;2022-11-15T00:26:42;22.64;58.21
31443;SHT31;18065;55.876;9.830;2022-11-15T00:29:11;22.66;58.15
31443;SHT31;18065;55.876;9.830;2022-11-15T00:31:40;22.62;58.16
31443;SHT31;18065;55.876;9.830;2022-11-15T00:34:09;22.64;58.21
31443;SHT31;18065;55.876;9.830;2022-11-15T00:36:38;22.62;58.18
31443;SHT31;18065;55.876;9.830;2022-11-15T00:39:11;22.61;58.16
31443;SHT31;18065;55.876;9.830;2022-11-15T00:41:41;22.61;58.26
31443;SHT31;18065;55.876;9.830;2022-11-15T00:44:10;22.62;58.14
31443;SHT31;18065;55.876;9.830;2022-11-15T00:46:39;22.59;58.23
31443;SHT31;18065;55.876;9.830;2022-11-15T00:49:07;22.64;58.07
31443;SHT31;18065;55.876;9.830;2022-11-15T00:51:36;22.62;58.14
31443;SHT31;18065;55.876;9.830;2022-11-15T00:54:05;22.62;58.10
31443;SHT31;18065;55.876;9.830;2022-11-15T00:56:36;22.65;58.03
31443;SHT31;18065;55.876;9.830;2022-11-15T00:59:05;22.65;57.95
31443;SHT31;18065;55.876;9.830;2022-11-15T01:01:35;22.68;57.95
31443;SHT31;18065;55.876;9.830;2022-11-15T01:04:04;22.66;57.96
31443;SHT31;18065;55.876;9.830;2022-11-15T01:06:33;22.66;57.92
31443;SHT31;18065;55.876;9.830;2022-11-15T01:09:01;22.65;57.89
31443;SHT31;18065;55.876;9.830;2022-11-15T01:11:30;22.68;57.95
31443;SHT31;18065;55.876;9.830;2022-11-15T01:14:02;22.66;57.93
31443;SHT31;18065;55.876;9.830;2022-11-15T01:16:31;22.68;57.87
31443;SHT31;18065;55.876;9.830;2022-11-15T01:19:00;22.65;57.95
31443;SHT31;18065;55.876;9.830;2022-11-15T01:21:29;22.62;58.02
31443;SHT31;18065;55.876;9.830;2022-11-15T01:23:58;22.64;57.97
31443;SHT31;18065;55.876;9.830;2022-11-15T01:26:27;22.65;57.92
31443;SHT31;18065;55.876;9.830;2022-11-15T01:28:56;22.62;57.85
31443;SHT31;18065;55.876;9.830;2022-11-15T01:31:28;22.64;57.82
31443;SHT31;18065;55.876;9.830;2022-11-15T01:33:57;22.65;57.71
31443;SHT31;18065;55.876;9.830;2022-11-15T01:36:26;22.68;57.74
31443;SHT31;18065;55.876;9.830;2022-11-15T01:38:57;22.68;57.72
31443;SHT31;18065;55.876;9.830;2022-11-15T01:41:28;22.66;57.68
31443;SHT31;18065;55.876;9.830;2022-11-15T01:44:28;22.66;57.60
31443;SHT31;18065;55.876;9.830;2022-11-15T01:46:49;22.66;57.58
31443;SHT31;18065;55.876;9.830;2022-11-15T01:49:20;22.66;57.50
31443;SHT31;18065;55.876;9.830;2022-11-15T01:51:51;22.69;57.50
31443;SHT31;18065;55.876;9.830;2022-11-15T01:54:22;22.66;57.53
31443;SHT31;18065;55.876;9.830;2022-11-15T01:56:55;22.66;57.58
31443;SHT31;18065;55.876;9.830;2022-11-15T01:59:25;22.66;57.58
31443;SHT31;18065;55.876;9.830;2022-11-15T02:01:57;22.65;57.52
31443;SHT31;18065;55.876;9.830;2022-11-15T02:04:28;22.66;57.56
31443;SHT31;18065;55.876;9.830;2022-11-15T02:06:58;22.65;57.56
31443;SHT31;18065;55.876;9.830;2022-11-15T02:09:29;22.65;57.47
31443;SHT31;18065;55.876;9.830;2022-11-15T02:11:59;22.66;57.39
31443;SHT31;18065;55.876;9.830;2022-11-15T02:14:28;22.65;57.49
31443;SHT31;18065;55.876;9.830;2022-11-15T02:17:08;22.65;57.53
31443;SHT31;18065;55.876;9.830;2022-11-15T02:20:00;22.64;57.57
31443;SHT31;18065;55.876;9.830;2022-11-15T02:22:42;22.65;57.52
31443;SHT31;18065;55.876;9.830;2022-11-15T02:25:28;22.64;57.62
31443;SHT31;18065;55.876;9.830;2022-11-15T02:28:28;22.65;57.71
31443;SHT31;18065;55.876;9.830;2022-11-15T02:31:05;22.64;57.61
31443;SHT31;18065;55.876;9.830;2022-11-15T02:33:42;22.62;57.60
31443;SHT31;18065;55.876;9.830;2022-11-15T02:36:20;22.62;57.60
31443;SHT31;18065;55.876;9.830;2022-11-15T02:38:58;22.62;57.58
31443;SHT31;18065;55.876;9.830;2022-11-15T02:41:31;22.62;57.56
31443;SHT31;18065;55.876;9.830;2022-11-15T02:44:06;22.62;57.62
31443;SHT31;18065;55.876;9.830;2022-11-15T02:46:37;22.62;57.66
31443;SHT31;18065;55.876;9.830;2022-11-15T02:49:19;22.62;57.57
31443;SHT31;18065;55.876;9.830;2022-11-15T02:51:51;22.65;57.58
31443;SHT31;18065;55.876;9.830;2022-11-15T02:54:22;22.64;57.56
31443;SHT31;18065;55.876;9.830;2022-11-15T02:56:53;22.64;57.71
31443;SHT31;18065;55.876;9.830;2022-11-15T02:59:41;22.62;57.73
31443;SHT31;18065;55.876;9.830;2022-11-15T03:02:26;22.64;57.57
31443;SHT31;18065;55.876;9.830;2022-11-15T03:05:00;22.65;57.63
31443;SHT31;18065;55.876;9.830;2022-11-15T03:07:36;22.59;57.67
31443;SHT31;18065;55.876;9.830;2022-11-15T03:10:12;22.62;57.58
31443;SHT31;18065;55.876;9.830;2022-11-15T03:12:45;22.65;57.51
31443;SHT31;18065;55.876;9.830;2022-11-15T03:15:19;22.65;57.50
31443;SHT31;18065;55.876;9.830;2022-11-15T03:17:55;22.65;57.56
31443;SHT31;18065;55.876;9.830;2022-11-15T03:20:28;22.64;57.47
31443;SHT31;18065;55.876;9.830;2022-11-15T03:23:04;22.65;57.46
31443;SHT31;18065;55.876;9.830;2022-11-15T03:25:41;22.66;57.32
31443;SHT31;18065;55.876;9.830;2022-11-15T03:28:19;22.66;57.32
31443;SHT31;18065;55.876;9.830;2022-11-15T03:30:54;22.68;57.23
31443;SHT31;18065;55.876;9.830;2022-11-15T03:33:28;22.68;57.18
31443;SHT31;18065;55.876;9.830;2022-11-15T03:35:57;22.66;57.19
31443;SHT31;18065;55.876;9.830;2022-11-15T03:38:30;22.65;57.18
31443;SHT31;18065;55.876;9.830;2022-11-15T03:41:03;22.65;57.14
31443;SHT31;18065;55.876;9.830;2022-11-15T03:43:38;22.64;57.20
31443;SHT31;18065;55.876;9.830;2022-11-15T03:46:13;22.64;57.28
31443;SHT31;18065;55.876;9.830;2022-11-15T03:48:48;22.64;57.18
31443;SHT31;18065;55.876;9.830;2022-11-15T03:51:18;22.65;57.14
31443;SHT31;18065;55.876;9.830;2022-11-15T03:53:48;22.64;57.21
31443;SHT31;18065;55.876;9.830;2022-11-15T03:56:17;22.62;57.07
31443;SHT31;18065;55.876;9.830;2022-11-15T03:58:45;22.64;57.10
31443;SHT31;18065;55.876;9.830;2022-11-15T04:01:14;22.61;57.13
31443;SHT31;18065;55.876;9.830;2022-11-15T04:03:47;22.61;57.09
31443;SHT31;18065;55.876;9.830;2022-11-15T04:06:16;22.64;57.19
31443;SHT31;18065;55.876;9.830;2022-11-15T04:08:44;22.62;57.10
31443;SHT31;18065;55.876;9.830;2022-11-15T04:11:13;22.62;57.20
31443;SHT31;18065;55.876;9.830;2022-11-15T04:13:42;22.61;57.15
31443;SHT31;18065;55.876;9.830;2022-11-15T04:16:10;22.64;57.22
31443;SHT31;18065;55.876;9.830;2022-11-15T04:18:39;22.65;57.11
31443;SHT31;18065;55.876;9.830;2022-11-15T04:21:10;22.62;57.14
31443;SHT31;18065;55.876;9.830;2022-11-15T04:23:51;22.62;57.21
31443;SHT31;18065;55.876;9.830;2022-11-15T04:26:33;22.64;57.17
31443;SHT31;18065;55.876;9.830;2022-11-15T04:29:02;22.64;57.13
31443;SHT31;18065;55.876;9.830;2022-11-15T04:31:43;22.59;57.21
31443;SHT31;18065;55.876;9.830;2022-11-15T04:34:12;22.61;57.26
31443;SHT31;18065;55.876;9.830;2022-11-15T04:36:43;22.61;57.21
31443;SHT31;18065;55.876;9.830;2022-11-15T04:39:24;22.64;57.15
31443;SHT31;18065;55.876;9.830;2022-11-15T04:41:53;22.61;57.23
31443;SHT31;18065;55.876;9.830;2022-11-15T04:44:21;22.58;57.28
31443;SHT31;18065;55.876;9.830;2022-11-15T04:46:50;22.58;57.27
31443;SHT31;18065;55.876;9.830;2022-11-15T04:49:19;22.59;57.30
31443;SHT31;18065;55.876;9.830;2022-11-15T04:51:50;22.61;57.28
31443;SHT31;18065;55.876;9.830;2022-11-15T04:54:19;22.62;57.24
31443;SHT31;18065;55.876;9.830;2022-11-15T04:56:48;22.64;57.23
31443;SHT31;18065;55.876;9.830;2022-11-15T04:59:17;22.61;57.24
31443;SHT31;18065;55.876;9.830;2022-11-15T05:01:45;22.61;57.26
31443;SHT31;18065;55.876;9.830;2022-11-15T05:04:15;22.59;57.21
31443;SHT31;18065;55.876;9.830;2022-11-15T05:06:45;22.61;57.25
31443;SHT31;18065;55.876;9.830;2022-11-15T05:09:16;22.64;57.23
31443;SHT31;18065;55.876;9.830;2022-11-15T05:11:46;22.62;57.22
31443;SHT31;18065;55.876;9.830;2022-11-15T05:14:15;22.62;57.07
31443;SHT31;18065;55.876;9.830;2022-11-15T05:16:44;22.59;57.09
31443;SHT31;18065;55.876;9.830;2022-11-15T05:19:13;22.59;57.03
31443;SHT31;18065;55.876;9.830;2022-11-15T05:21:41;22.65;57.03
31443;SHT31;18065;55.876;9.830;2022-11-15T05:24:10;22.66;57.13
31443;SHT31;18065;55.876;9.830;2022-11-15T05:26:42;22.64;57.16
31443;SHT31;18065;55.876;9.830;2022-11-15T05:29:11;22.68;57.20
31443;SHT31;18065;55.876;9.830;2022-11-15T05:31:40;22.68;57.29
31443;SHT31;18065;55.876;9.830;2022-11-15T05:34:10;22.68;57.28
31443;SHT31;18065;55.876;9.830;2022-11-15T05:36:41;22.71;57.30
31443;SHT31;18065;55.876;9.830;2022-11-15T05:39:11;22.69;57.41
31443;SHT31;18065;55.876;9.830;2022-11-15T05:41:45;22.69;57.55
31443;SHT31;18065;55.876;9.830;2022-11-15T05:44:21;22.71;57.56
31443;SHT31;18065;55.876;9.830;2022-11-15T05:46:53;22.72;57.63
31443;SHT31;18065;55.876;9.830;2022-11-15T05:49:26;22.73;57.56
31443;SHT31;18065;55.876;9.830;2022-11-15T05:51:58;22.73;57.50
31443;SHT31;18065;55.876;9.830;2022-11-15T05:54:28;22.73;57.54
31443;SHT31;18065;55.876;9.830;2022-11-15T05:56:59;22.71;57.51
31443;SHT31;18065;55.876;9.830;2022-11-15T05:59:31;22.72;57.55
31443;SHT31;18065;55.876;9.830;2022-11-15T06:02:00;22.72;57.55
31443;SHT31;18065;55.876;9.830;2022-11-15T06:04:28;22.73;57.49
31443;SHT31;18065;55.876;9.830;2022-11-15T06:06:58;22.73;57.53
31443;SHT31;18065;55.876;9.830;2022-11-15T06:09:27;22.73;57.51
31443;SHT31;18065;55.876;9.830;2022-11-15T06:11:59;22.75;57.54
31443;SHT31;18065;55.876;9.830;2022-11-15T06:14:28;22.73;57.54
31443;SHT31;18065;55.876;9.830;2022-11-15T06:16:56;22.71;57.56
31443;SHT31;18065;55.876;9.830;2022-11-15T06:19:25;22.73;57.56
31443;SHT31;18065;55.876;9.830;2022-11-15T06:21:58;22.75;57.54
31443;SHT31;18065;55.876;9.830;2022-11-15T06:24:27;22.73;57.58
31443;SHT31;18065;55.876;9.830;2022-11-15T06:26:55;22.75;57.61
31443;SHT31;18065;55.876;9.830;2022-11-15T06:29:27;22.76;57.64
31443;SHT31;18065;55.876;9.830;2022-11-15T06:31:57;22.75;57.97
31443;SHT31;18065;55.876;9.830;2022-11-15T06:34:26;22.76;57.74
31443;SHT31;18065;55.876;9.830;2022-11-15T06:36:56;22.73;57.74
31443;SHT31;18065;55.876;9.830;2022-11-15T06:39:24;22.71;57.75
31443;SHT31;18065;55.876;9.830;2022-11-15T06:41:53;22.75;57.78
31443;SHT31;18065;55.876;9.830;2022-11-15T06:44:22;22.73;57.71
31443;SHT31;18065;55.876;9.830;2022-11-15T06:46:53;22.75;57.79
31443;SHT31;18065;55.876;9.830;2022-11-15T06:49:22;22.72;57.75
31443;SHT31;18065;55.876;9.830;2022-11-15T06:51:50;22.75;57.79
31443;SHT31;18065;55.876;9.830;2022-11-15T06:54:19;22.72;57.77
31443;SHT31;18065;55.876;9.830;2022-11-15T06:56:48;22.71;57.73
31443;SHT31;18065;55.876;9.830;2022-11-15T06:59:17;22.75;57.69
31443;SHT31;18065;55.876;9.830;2022-11-15T07:01:45;22.73;57.65
31443;SHT31;18065;55.876;9.830;2022-11-15T07:04:17;22.71;57.67
31443;SHT31;18065;55.876;9.830;2022-11-15T07:06:46;22.73;57.60
31443;SHT31;18065;55.876;9.830;2022-11-15T07:09:15;22.73;57.65
31443;SHT31;18065;55.876;9.830;2022-11-15T07:11:44;22.73;57.75
31443;SHT31;18065;55.876;9.830;2022-11-15T07:14:12;22.75;57.48
31443;SHT31;18065;55.876;9.830;2022-11-15T07:16:41;22.72;57.73
31443;SHT31;18065;55.876;9.830;2022-11-15T07:19:11;22.64;58.11
31443;SHT31;18065;55.876;9.830;2022-11-15T07:21:42;22.62;58.27
31443;SHT31;18065;55.876;9.830;2022-11-15T07:24:12;22.62;58.41
31443;SHT31;18065;55.876;9.830;2022-11-15T07:26:41;22.59;58.64
31443;SHT31;18065;55.876;9.830;2022-11-15T07:29:10;22.59;58.80
31443;SHT31;18065;55.876;9.830;2022-11-15T07:31:38;22.55;58.76
31443;SHT31;18065;55.876;9.830;2022-11-15T07:34:07;22.51;58.78
31443;SHT31;18065;55.876;9.830;2022-11-15T07:36:36;22.52;58.98
31443;SHT31;18065;55.876;9.830;2022-11-15T07:39:07;22.54;59.11
31443;SHT31;18065;55.876;9.830;2022-11-15T07:41:37;22.48;59.04
31443;SHT31;18065;55.876;9.830;2022-11-15T07:44:06;22.47;59.18
31443;SHT31;18065;55.876;9.830;2022-11-15T07:46:35;22.51;59.02
31443;SHT31;18065;55.876;9.830;2022-11-15T07:49:04;22.47;59.06
31443;SHT31;18065;55.876;9.830;2022-11-15T07:51:33;22.47;59.22
31443;SHT31;18065;55.876;9.830;2022-11-15T07:54:02;22.42;59.29
31443;SHT31;18065;55.876;9.830;2022-11-15T07:56:33;22.49;59.06
31443;SHT31;18065;55.876;9.830;2022-11-15T07:59:02;22.49;59.03
31443;SHT31;18065;55.876;9.830;2022-11-15T08:01:30;22.47;59.11
31443;SHT31;18065;55.876;9.830;2022-11-15T08:04:01;22.44;59.26
31443;SHT31;18065;55.876;9.830;2022-11-15T08:06:29;22.42;59.29
31443;SHT31;18065;55.876;9.830;2022-11-15T08:08:58;22.42;59.29
31443;SHT31;18065;55.876;9.830;2022-11-15T08:11:29;22.41;59.33
31443;SHT31;18065;55.876;9.830;2022-11-15T08:14:00;22.39;59.44
31443;SHT31;18065;55.876;9.830;2022-11-15T08:16:29;22.39;59.46
31443;SHT31;18065;55.876;9.830;2022-11-15T08:18:58;22.38;59.28
31443;SHT31;18065;55.876;9.830;2022-11-15T08:21:26;22.37;59.21
31443;SHT31;18065;55.876;9.830;2022-11-15T08:23:55;22.38;59.36
31443;SHT31;18065;55.876;9.830;2022-11-15T08:26:24;22.34;59.33
31443;SHT31;18065;55.876;9.830;2022-11-15T08:28:55;22.32;59.55
31443;SHT31;18065;55.876;9.830;2022-11-15T08:31:27;22.29;59.56
31443;SHT31;18065;55.876;9.830;2022-11-15T08:33:55;22.34;59.53
31443;SHT31;18065;55.876;9.830;2022-11-15T08:36:26;22.31;59.63
31443;SHT31;18065;55.876;9.830;2022-11-15T08:38:55;22.29;59.53
31443;SHT31;18065;55.876;9.830;2022-11-15T08:41:26;22.31;59.48
31443;SHT31;18065;55.876;9.830;2022-11-15T08:43:55;22.27;59.70
31443;SHT31;18065;55.876;9.830;2022-11-15T08:46:26;22.29;59.31
31443;SHT31;18065;55.876;9.830;2022-11-15T08:48:55;22.29;59.25
31443;SHT31;18065;55.876;9.830;2022-11-15T08:51:24;22.28;59.42
31443;SHT31;18065;55.876;9.830;2022-11-15T08:53:53;22.28;59.41
31443;SHT31;18065;55.876;9.830;2022-11-15T08:56:21;22.27;59.54
31443;SHT31;18065;55.876;9.830;2022-11-15T08:58:50;22.24;59.57
31443;SHT31;18065;55.876;9.830;2022-11-15T09:01:20;22.24;59.55
31443;SHT31;18065;55.876;9.830;2022-11-15T09:03:51;22.24;59.56
31443;SHT31;18065;55.876;9.830;2022-11-15T09:06:20;22.25;59.54
31443;SHT31;18065;55.876;9.830;2022-11-15T09:08:50;22.24;59.51
31443;SHT31;18065;55.876;9.830;2022-11-15T09:11:19;22.24;59.48
31443;SHT31;18065;55.876;9.830;2022-11-15T09:13:48;22.24;59.50
31443;SHT31;18065;55.876;9.830;2022-11-15T09:16:17;22.22;59.47
31443;SHT31;18065;55.876;9.830;2022-11-15T09:18:46;22.24;59.39
31443;SHT31;18065;55.876;9.830;2022-11-15T09:21:18;22.24;59.41
31443;SHT31;18065;55.876;9.830;2022-11-15T09:23:50;22.22;59.43
31443;SHT31;18065;55.876;9.830;2022-11-15T09:26:18;22.22;59.49
31443;SHT31;18065;55.876;9.830;2022-11-15T09:28:47;22.20;59.27
31443;SHT31;18065;55.876;9.830;2022-11-15T09:31:16;22.21;59.42
31443;SHT31;18065;55.876;9.830;2022-11-15T09:33:45;22.21;59.42
31443;SHT31;18065;55.876;9.830;2022-11-15T09:36:16;22.21;59.49
31443;SHT31;18065;55.876;9.830;2022-11-15T09:38:45;22.21;59.20
31443;SHT31;18065;55.876;9.830;2022-11-15T09:41:38;22.22;59.45
31443;SHT31;18065;55.876;9.830;2022-11-15T09:44:38;22.20;59.50
31443;SHT31;18065;55.876;9.830;2022-11-15T09:47:28;22.25;59.24
31443;SHT31;18065;55.876;9.830;2022-11-15T09:50:00;22.28;59.11
31443;SHT31;18065;55.876;9.830;2022-11-15T09:52:33;22.38;58.78
31443;SHT31;18065;55.876;9.830;2022-11-15T09:55:07;22.39;58.58
31443;SHT31;18065;55.876;9.830;2022-11-15T09:57:44;22.45;58.46
31443;SHT31;18065;55.876;9.830;2022-11-15T10:00:18;22.45;58.32
31443;SHT31;18065;55.876;9.830;2022-11-15T10:03:00;22.49;58.23
31443;SHT31;18065;55.876;9.830;2022-11-15T10:05:32;22.52;58.13
31443;SHT31;18065;55.876;9.830;2022-11-15T10:08:16;22.51;58.16
31443;SHT31;18065;55.876;9.830;2022-11-15T10:10:52;22.54;58.08
31443;SHT31;18065;55.876;9.830;2022-11-15T10:13:25;22.55;58.06
31443;SHT31;18065;55.876;9.830;2022-11-15T10:16:00;22.54;57.99
31443;SHT31;18065;55.876;9.830;2022-11-15T10:18:35;22.55;57.94
31443;SHT31;18065;55.876;9.830;2022-11-15T10:21:15;22.55;57.86
31443;SHT31;18065;55.876;9.830;2022-11-15T10:23:47;22.55;57.85
31443;SHT31;18065;55.876;9.830;2022-11-15T10:26:17;22.54;57.85
31443;SHT31;18065;55.876;9.830;2022-11-15T10:28:46;22.54;57.90
31443;SHT31;18065;55.876;9.830;2022-11-15T10:31:22;22.54;57.80
31443;SHT31;18065;55.876;9.830;2022-11-15T10:33:59;22.55;57.85
31443;SHT31;18065;55.876;9.830;2022-11-15T10:36:37;22.54;57.86
31443;SHT31;18065;55.876;9.830;2022-11-15T10:39:11;22.52;57.83
31443;SHT31;18065;55.876;9.830;2022-11-15T10:41:41;22.51;57.75
31443;SHT31;18065;55.876;9.830;2022-11-15T10:44:22;22.49;57.85
31443;SHT31;18065;55.876;9.830;2022-11-15T10:49:58;22.52;57.60
31443;SHT31;18065;55.876;9.830;2022-11-15T10:52:28;22.54;57.51
31443;SHT31;18065;55.876;9.830;2022-11-15T10:55:04;22.52;57.58
31443;SHT31;18065;55.876;9.830;2022-11-15T10:57:36;22.54;57.51
31443;SHT31;18065;55.876;9.830;2022-11-15T11:00:26;22.48;58.10
31443;SHT31;18065;55.876;9.830;2022-11-15T11:03:00;22.62;57.48
31443;SHT31;18065;55.876;9.830;2022-11-15T11:05:34;22.71;57.26
31443;SHT31;18065;55.876;9.830;2022-11-15T11:08:05;22.77;57.16
31443;SHT31;18065;55.876;9.830;2022-11-15T11:10:56;22.80;57.20
31443;SHT31;18065;55.876;9.830;2022-11-15T11:13:26;22.85;57.07
31443;SHT31;18065;55.876;9.830;2022-11-15T11:16:15;22.87;57.08
31443;SHT31;18065;55.876;9.830;2022-11-15T11:18:54;22.93;57.08
31443;SHT31;18065;55.876;9.830;2022-11-15T11:21:35;22.95;57.10
31443;SHT31;18065;55.876;9.830;2022-11-15T11:24:10;22.99;56.99
31443;SHT31;18065;55.876;9.830;2022-11-15T11:26:49;22.99;57.11
31443;SHT31;18065;55.876;9.830;2022-11-15T11:29:38;23.02;57.11
31443;SHT31;18065;55.876;9.830;2022-11-15T11:32:25;23.03;57.09
31443;SHT31;18065;55.876;9.830;2022-11-15T11:35:01;23.06;57.11
31443;SHT31;18065;55.876;9.830;2022-11-15T11:37:39;23.06;57.10
31443;SHT31;18065;55.876;9.830;2022-11-15T11:40:24;23.07;57.06
31443;SHT31;18065;55.876;9.830;2022-11-15T11:43:05;23.09;57.12
31443;SHT31;18065;55.876;9.830;2022-11-15T11:46:02;23.10;57.06
31443;SHT31;18065;55.876;9.830;2022-11-15T11:48:40;23.12;57.01
31443;SHT31;18065;55.876;9.830;2022-11-15T11:51:15;23.14;57.07
31443;SHT31;18065;55.876;9.830;2022-11-15T11:53:51;23.13;57.00
31443;SHT31;18065;55.876;9.830;2022-11-15T11:56:25;23.17;56.95
31443;SHT31;18065;55.876;9.830;2022-11-15T11:59:01;23.16;56.94
31443;SHT31;18065;55.876;9.830;2022-11-15T12:01:36;23.19;56.97
31443;SHT31;18065;55.876;9.830;2022-11-15T12:04:13;23.20;56.93
31443;SHT31;18065;55.876;9.830;2022-11-15T12:06:47;23.23;56.93
31443;SHT31;18065;55.876;9.830;2022-11-15T12:09:21;23.22;56.99
31443;SHT31;18065;55.876;9.830;2022-11-15T12:11:58;23.14;57.26
31443;SHT31;18065;55.876;9.830;2022-11-15T12:14:38;23.14;57.38
31443;SHT31;18065;55.876;9.830;2022-11-15T12:17:09;23.22;57.12
31443;SHT31;18065;55.876;9.830;2022-11-15T12:19:38;23.24;57.11
31443;SHT31;18065;55.876;9.830;2022-11-15T12:22:13;23.27;57.14
31443;SHT31;18065;55.876;9.830;2022-11-15T12:24:50;23.27;57.13
31443;SHT31;18065;55.876;9.830;2022-11-15T12:27:26;23.28;57.04
31443;SHT31;18065;55.876;9.830;2022-11-15T12:30:04;23.27;57.09
31443;SHT31;18065;55.876;9.830;2022-11-15T12:32:38;23.33;57.05
31443;SHT31;18065;55.876;9.830;2022-11-15T12:35:24;23.30;57.11
31443;SHT31;18065;55.876;9.830;2022-11-15T12:37:54;23.34;57.06
31443;SHT31;18065;55.876;9.830;2022-11-15T12:40:30;23.34;56.97
31443;SHT31;18065;55.876;9.830;2022-11-15T12:46:08;23.37;57.09
31443;SHT31;18065;55.876;9.830;2022-11-15T12:48:56;23.38;57.12
31443;SHT31;18065;55.876;9.830;2022-11-15T12:55:02;23.38;57.09
31443;SHT31;18065;55.876;9.830;2022-11-15T12:57:42;23.40;56.99
31443;SHT31;18065;55.876;9.830;2022-11-15T13:00:42;23.40;57.14
31443;SHT31;18065;55.876;9.830;2022-11-15T13:03:27;23.41;57.08
31443;SHT31;18065;55.876;9.830;2022-11-15T13:06:07;23.40;57.17
31443;SHT31;18065;55.876;9.830;2022-11-15T13:08:42;23.43;57.13
31443;SHT31;18065;55.876;9.830;2022-11-15T13:17:31;23.47;57.13
31443;SHT31;18065;55.876;9.830;2022-11-15T13:20:18;23.47;57.14
31443;SHT31;18065;55.876;9.830;2022-11-15T13:22:49;23.47;57.07
31443;SHT31;18065;55.876;9.830;2022-11-15T13:25:31;23.45;57.12
31443;SHT31;18065;55.876;9.830;2022-11-15T13:28:10;23.48;57.09
31443;SHT31;18065;55.876;9.830;2022-11-15T13:30:40;23.47;57.03
31443;SHT31;18065;55.876;9.830;2022-11-15T13:33:16;23.50;57.05
31443;SHT31;18065;55.876;9.830;2022-11-15T13:35:50;23.50;57.01
31443;SHT31;18065;55.876;9.830;2022-11-15T13:38:26;23.48;57.10
31443;SHT31;18065;55.876;9.830;2022-11-15T13:40:56;23.44;57.24
31443;SHT31;18065;55.876;9.830;2022-11-15T13:43:32;23.41;56.19
31443;SHT31;18065;55.876;9.830;2022-11-15T13:46:12;23.44;57.19
31443;SHT31;18065;55.876;9.830;2022-11-15T13:48:42;23.43;56.97
31443;SHT31;18065;55.876;9.830;2022-11-15T13:51:21;23.44;56.83
31443;SHT31;18065;55.876;9.830;2022-11-15T13:53:54;23.44;56.69
31443;SHT31;18065;55.876;9.830;2022-11-15T13:56:23;23.27;54.98
31443;SHT31;18065;55.876;9.830;2022-11-15T13:58:53;22.82;56.29
31443;SHT31;18065;55.876;9.830;2022-11-15T14:01:22;22.45;57.12
31443;SHT31;18065;55.876;9.830;2022-11-15T14:03:55;22.21;58.17
31443;SHT31;18065;55.876;9.830;2022-11-15T14:06:28;22.21;58.17
31443;SHT31;18065;55.876;9.830;2022-11-15T14:09:01;22.11;58.62
31443;SHT31;18065;55.876;9.830;2022-11-15T14:11:31;22.06;58.61
31443;SHT31;18065;55.876;9.830;2022-11-15T14:14:10;22.16;58.52
31443;SHT31;18065;55.876;9.830;2022-11-15T14:16:42;22.20;58.25
31443;SHT31;18065;55.876;9.830;2022-11-15T14:19:22;22.22;58.17
31443;SHT31;18065;55.876;9.830;2022-11-15T14:22:18;22.28;57.92
31443;SHT31;18065;55.876;9.830;2022-11-15T14:25:13;22.29;57.98
31443;SHT31;18065;55.876;9.830;2022-11-15T14:27:43;22.31;57.91
31443;SHT31;18065;55.876;9.830;2022-11-15T14:30:16;22.31;57.81
31443;SHT31;18065;55.876;9.830;2022-11-15T14:32:48;22.37;57.82
31443;SHT31;18065;55.876;9.830;2022-11-15T14:35:19;22.34;57.80
31443;SHT31;18065;55.876;9.830;2022-11-15T14:37:51;22.35;57.81
31443;SHT31;18065;55.876;9.830;2022-11-15T14:40:21;22.34;57.61
31443;SHT31;18065;55.876;9.830;2022-11-15T14:42:50;22.34;57.73
31443;SHT31;18065;55.876;9.830;2022-11-15T14:45:20;22.34;57.92
31443;SHT31;18065;55.876;9.830;2022-11-15T14:47:49;22.38;57.70
31443;SHT31;18065;55.876;9.830;2022-11-15T14:50:20;22.37;57.74
31443;SHT31;18065;55.876;9.830;2022-11-15T14:52:51;22.35;57.82
31443;SHT31;18065;55.876;9.830;2022-11-15T14:55:21;22.35;57.87
31443;SHT31;18065;55.876;9.830;2022-11-15T14:57:51;22.45;57.78
31443;SHT31;18065;55.876;9.830;2022-11-15T15:00:21;22.47;56.61
31443;SHT31;18065;55.876;9.830;2022-11-15T15:02:52;22.32;57.03
31443;SHT31;18065;55.876;9.830;2022-11-15T15:05:23;22.41;57.16
31443;SHT31;18065;55.876;9.830;2022-11-15T15:07:55;22.55;56.90
31443;SHT31;18065;55.876;9.830;2022-11-15T15:10:24;22.65;56.38
31443;SHT31;18065;55.876;9.830;2022-11-15T15:12:53;22.73;56.17
31443;SHT31;18065;55.876;9.830;2022-11-15T15:15:25;22.80;56.05
31443;SHT31;18065;55.876;9.830;2022-11-15T15:17:54;22.85;55.89
31443;SHT31;18065;55.876;9.830;2022-11-15T15:20:23;22.92;55.66
31443;SHT31;18065;55.876;9.830;2022-11-15T15:22:55;22.92;55.51
31443;SHT31;18065;55.876;9.830;2022-11-15T15:25:27;22.99;55.38
31443;SHT31;18065;55.876;9.830;2022-11-15T15:27:57;23.00;55.28
31443;SHT31;18065;55.876;9.830;2022-11-15T15:30:29;23.03;55.12
31443;SHT31;18065;55.876;9.830;2022-11-15T15:32:58;23.03;55.00
31443;SHT31;18065;55.876;9.830;2022-11-15T15:35:30;23.06;55.01
31443;SHT31;18065;55.876;9.830;2022-11-15T15:38:03;23.07;54.93
31443;SHT31;18065;55.876;9.830;2022-11-15T15:40:33;23.06;54.86
31443;SHT31;18065;55.876;9.830;2022-11-15T15:43:03;23.10;54.79
31443;SHT31;18065;55.876;9.830;2022-11-15T15:45:35;23.12;54.69
31443;SHT31;18065;55.876;9.830;2022-11-15T15:48:04;23.12;54.72
31443;SHT31;18065;55.876;9.830;2022-11-15T15:50:34;23.07;55.09
31443;SHT31;18065;55.876;9.830;2022-11-15T15:53:06;23.10;54.82
31443;SHT31;18065;55.876;9.830;2022-11-15T15:55:36;23.12;54.81
31443;SHT31;18065;55.876;9.830;2022-11-15T15:58:05;23.12;54.91
31443;SHT31;18065;55.876;9.830;2022-11-15T16:00:34;23.12;54.91
31443;SHT31;18065;55.876;9.830;2022-11-15T16:03:03;23.12;55.48
31443;SHT31;18065;55.876;9.830;2022-11-15T16:05:32;23.07;55.20
31443;SHT31;18065;55.876;9.830;2022-11-15T16:08:18;23.10;54.90
31443;SHT31;18065;55.876;9.830;2022-11-15T16:10:48;23.10;54.74
31443;SHT31;18065;55.876;9.830;2022-11-15T16:13:17;23.16;54.68
31443;SHT31;18065;55.876;9.830;2022-11-15T16:15:47;23.04;56.66
31443;SHT31;18065;55.876;9.830;2022-11-15T16:18:17;22.85;57.09
31443;SHT31;18065;55.876;9.830;2022-11-15T16:20:47;22.69;57.56